Time;durP1;ratioP1;P1;durP2;ratioP2;P2;SDS_P1;SDS_P2;PMS_P1;PMS_P2;Temp;Humidity;BMP_temperature;BMP_pressure;BME280_temperature;BME280_humidity;BME280_pressure;Samples;Min_cycle;Max_cycle;Signal;HPM_P1;HPM_P2
2022/06/13 00:02:22;;;;;;;10.48;3.35;;;;;;;17.86;54.81;100917.25;4966746;28;20063;-59
2022/06/13 00:04:49;;;;;;;7.80;2.03;;;;;;;17.83;55.39;100917.53;4966353;28;20054;-58
2022/06/13 00:07:17;;;;;;;7.15;2.25;;;;;;;17.80;55.81;100914.28;4970949;28;20046;-58
2022/06/13 00:09:44;;;;;;;9.73;2.15;;;;;;;17.77;56.11;100906.53;4967192;28;20055;-57
2022/06/13 00:12:11;;;;;;;14.32;3.28;;;;;;;17.74;56.08;100902.31;4970047;28;20109;-55
2022/06/13 00:14:38;;;;;;;7.13;2.78;;;;;;;17.72;56.20;100904.22;4968419;28;20808;-58
2022/06/13 00:17:05;;;;;;;8.80;2.28;;;;;;;17.72;56.19;100909.56;4965995;28;20062;-57
2022/06/13 00:19:32;;;;;;;6.80;2.33;;;;;;;17.72;56.53;100904.22;4966335;28;20054;-58
2022/06/13 00:21:59;;;;;;;8.55;2.17;;;;;;;17.73;56.45;100911.25;4961570;28;20073;-56
2022/06/13 00:24:26;;;;;;;6.43;1.73;;;;;;;17.69;56.92;100912.47;4977158;28;20042;-56
2022/06/13 00:26:53;;;;;;;7.93;2.45;;;;;;;17.68;56.81;100905.47;4970425;28;20066;-54
2022/06/13 00:29:20;;;;;;;6.82;2.17;;;;;;;17.66;56.90;100899.44;4970598;28;20063;-56
2022/06/13 00:31:48;;;;;;;8.70;2.40;;;;;;;17.62;56.86;100898.00;4973591;28;20051;-57
2022/06/13 00:34:15;;;;;;;6.30;2.17;;;;;;;17.61;57.13;100899.81;4969367;28;20055;-55
2022/06/13 00:36:42;;;;;;;7.45;2.35;;;;;;;17.57;57.32;100901.06;4968996;28;20047;-55
2022/06/13 00:39:10;;;;;;;7.07;2.10;;;;;;;17.55;57.34;100899.47;4970638;28;20062;-55
2022/06/13 00:41:39;;;;;;;5.43;2.05;;;;;;;17.52;57.90;100897.94;4969038;28;20054;-56
2022/06/13 00:44:22;;;;;;;10.55;2.65;;;;;;;17.51;57.74;100896.22;4971773;28;20105;-55
2022/06/13 00:46:50;;;;;;;7.15;2.00;;;;;;;17.46;58.02;100885.97;4969348;28;20176;-53
2022/06/13 00:49:37;;;;;;;7.28;1.80;;;;;;;17.42;58.06;100883.69;4970134;28;20051;-52
2022/06/13 00:52:24;;;;;;;6.47;2.08;;;;;;;17.40;57.92;100894.47;4964101;28;20062;-55
2022/06/13 00:54:52;;;;;;;5.93;1.90;;;;;;;17.38;57.93;100901.75;4967334;28;20129;-58
2022/06/13 00:57:22;;;;;;;7.50;2.95;;;;;;;17.35;57.95;100911.81;4951815;28;20058;-55
2022/06/13 00:59:54;;;;;;;7.38;2.28;;;;;;;17.30;58.09;100909.53;4970447;28;20610;-57
2022/06/13 01:02:21;;;;;;;7.93;2.47;;;;;;;17.25;58.17;100902.91;4972520;28;20046;-58
2022/06/13 01:04:51;;;;;;;6.97;2.38;;;;;;;17.20;58.33;100904.13;4969936;28;20066;-57
2022/06/13 01:07:20;;;;;;;9.50;2.88;;;;;;;17.17;58.62;100906.19;4965117;28;20403;-57
2022/06/13 01:12:36;;;;;;;7.72;2.15;;;;;;;17.11;58.37;100904.88;4976719;28;20059;-58
2022/06/13 01:15:21;;;;;;;9.27;2.45;;;;;;;17.07;59.04;100905.25;4971867;28;20057;-59
2022/06/13 01:18:19;;;;;;;10.70;2.95;;;;;;;17.03;59.28;100909.13;4978850;28;20054;-56
2022/06/13 01:21:13;;;;;;;9.98;3.08;;;;;;;16.99;59.42;100903.22;4986135;28;20063;-60
2022/06/13 01:24:02;;;;;;;6.38;2.30;;;;;;;16.97;59.58;100907.78;4983404;28;20054;-59
2022/06/13 01:26:39;;;;;;;9.07;2.45;;;;;;;16.92;59.84;100908.16;4971420;28;20051;-56
2022/06/13 01:29:25;;;;;;;9.60;2.40;;;;;;;16.91;59.91;100910.97;4973401;28;20075;-59
2022/06/13 01:32:34;;;;;;;7.15;1.80;;;;;;;16.87;60.15;100898.88;4970066;28;20550;-60
2022/06/13 01:35:29;;;;;;;6.53;2.17;;;;;;;16.84;60.09;100897.31;4963466;28;20046;-56
2022/06/13 01:38:23;;;;;;;6.80;2.08;;;;;;;16.80;60.78;100895.03;4969096;28;20046;-58
2022/06/13 01:41:06;;;;;;;9.43;3.00;;;;;;;16.78;61.03;100891.66;4968865;28;20047;-59
2022/06/13 01:44:00;;;;;;;7.18;2.22;;;;;;;16.76;61.17;100889.13;4975020;28;20062;-53
2022/06/13 01:46:34;;;;;;;10.27;2.33;;;;;;;16.71;61.19;100894.78;4976014;28;20046;-58
2022/06/13 01:49:23;;;;;;;8.27;2.33;;;;;;;16.67;61.98;100895.97;4973228;28;20698;-57
2022/06/13 01:51:55;;;;;;;6.95;2.13;;;;;;;16.66;61.84;100896.09;4968961;28;20047;-58
2022/06/13 01:54:48;;;;;;;10.32;2.45;;;;;;;16.64;62.24;100898.03;4976035;28;20059;-55
2022/06/13 01:57:45;;;;;;;11.52;2.42;;;;;;;16.63;62.04;100899.84;4971666;28;20077;-57
2022/06/13 02:00:16;;;;;;;8.88;2.22;;;;;;;16.61;62.53;100906.25;4950784;28;20516;-53
2022/06/13 02:02:47;;;;;;;8.70;2.40;;;;;;;16.58;62.84;100906.50;4967042;28;20051;-54
2022/06/13 02:05:22;;;;;;;9.73;2.83;;;;;;;16.55;63.13;100910.25;4966610;28;20062;-58
2022/06/13 02:07:56;;;;;;;9.77;2.80;;;;;;;16.51;63.48;100910.59;4968483;28;20121;-53
2022/06/13 02:10:48;;;;;;;8.68;2.70;;;;;;;16.48;63.54;100908.19;4966214;28;20057;-57
2022/06/13 02:13:29;;;;;;;8.00;2.22;;;;;;;16.45;64.08;100906.63;4957548;28;20459;-58
2022/06/13 02:15:58;;;;;;;6.80;2.40;;;;;;;16.43;63.94;100904.06;4966878;28;20058;-57
2022/06/13 02:18:32;;;;;;;9.85;2.53;;;;;;;16.40;64.81;100903.50;4965616;28;20094;-57
2022/06/13 02:21:06;;;;;;;7.15;2.72;;;;;;;16.38;64.58;100910.72;4963753;28;20063;-57
2022/06/13 02:23:38;;;;;;;6.93;2.30;;;;;;;16.36;64.57;100918.84;4964275;28;20070;-57
2022/06/13 02:26:09;;;;;;;8.18;2.20;;;;;;;16.35;64.95;100921.63;4966263;28;20420;-57
2022/06/13 02:28:44;;;;;;;5.90;2.30;;;;;;;16.32;65.28;100917.38;4967366;28;20092;-54
2022/06/13 02:31:20;;;;;;;8.30;2.67;;;;;;;16.30;66.14;100926.41;4970059;28;20372;-56
2022/06/13 02:34:09;;;;;;;6.97;2.25;;;;;;;16.26;65.64;100935.63;4971190;28;20515;-58
2022/06/13 02:36:42;;;;;;;9.52;2.45;;;;;;;16.24;65.70;100930.41;4978862;28;20069;-54
2022/06/13 02:39:15;;;;;;;12.20;3.00;;;;;;;16.23;66.00;100928.72;4967542;28;20055;-58
2022/06/13 02:41:45;;;;;;;11.57;2.70;;;;;;;16.25;65.58;100934.75;4965642;28;20050;-60
2022/06/13 02:44:24;;;;;;;5.22;2.10;;;;;;;16.30;65.38;100918.44;4967361;28;20143;-59
2022/06/13 02:46:55;;;;;;;6.60;2.15;;;;;;;16.32;65.46;100928.00;4970976;28;20059;-57
2022/06/13 02:49:31;;;;;;;6.60;2.42;;;;;;;16.32;65.22;100932.47;4968612;28;20141;-58
2022/06/13 02:52:02;;;;;;;8.38;2.60;;;;;;;16.33;65.19;100932.34;4961953;28;20050;-61
2022/06/13 02:54:40;;;;;;;9.82;2.85;;;;;;;16.33;65.25;100919.06;4967137;28;20126;-56
2022/06/13 02:57:38;;;;;;;8.55;2.20;;;;;;;16.36;65.01;100900.22;4970686;28;20062;-58
2022/06/13 03:00:35;;;;;;;11.18;3.00;;;;;;;16.39;65.08;100900.00;4964768;28;20054;-55
2022/06/13 03:03:08;;;;;;;11.93;2.78;;;;;;;16.42;64.63;100910.38;4951384;28;20419;-56
2022/06/13 03:05:44;;;;;;;6.55;2.78;;;;;;;16.42;64.65;100926.31;4964349;28;20056;-57
2022/06/13 03:08:16;;;;;;;10.75;3.30;;;;;;;16.41;64.57;100916.66;4963835;28;20055;-59
2022/06/13 03:11:13;;;;;;;9.10;2.90;;;;;;;16.41;64.84;100926.44;4973192;28;20062;-57
2022/06/13 03:14:09;;;;;;;6.00;2.15;;;;;;;16.38;65.38;100929.31;4972509;28;20514;-54
2022/06/13 03:16:45;;;;;;;7.60;2.70;;;;;;;16.35;66.06;100927.78;4962347;28;20090;-57
2022/06/13 03:19:17;;;;;;;6.70;2.72;;;;;;;16.31;66.28;100928.13;4967836;28;20130;-56
2022/06/13 03:21:47;;;;;;;7.38;2.42;;;;;;;16.27;66.58;100932.84;4965026;28;20722;-56
2022/06/13 03:24:26;;;;;;;6.32;2.58;;;;;;;16.26;66.26;100928.50;4966058;28;20054;-58
2022/06/13 03:26:58;;;;;;;10.15;2.80;;;;;;;16.25;66.64;100931.25;4960069;28;20055;-56
2022/06/13 03:29:32;;;;;;;8.23;2.30;;;;;;;16.24;66.54;100941.03;4964163;28;20051;-56
2022/06/13 03:32:06;;;;;;;10.68;2.30;;;;;;;16.18;66.93;100936.22;4982479;28;20137;-56
2022/06/13 03:34:37;;;;;;;6.22;2.90;;;;;;;16.11;66.83;100935.81;4963184;28;20641;-57
2022/06/13 03:37:12;;;;;;;5.63;2.15;;;;;;;16.11;66.84;100940.28;4966864;28;20053;-54
2022/06/13 03:40:00;;;;;;;;;;;;;;;16.12;66.98;100939.31;4966336;28;20058;-57
2022/06/13 03:42:43;;;;;;;8.32;2.63;;;;;;;16.14;66.85;100940.91;4964764;28;20302;-56
2022/06/13 03:45:25;;;;;;;11.07;3.10;;;;;;;16.16;66.94;100944.28;4979242;28;20673;-57
2022/06/13 03:47:58;;;;;;;6.55;2.50;;;;;;;16.17;66.99;100938.03;4970360;28;20055;-55
2022/06/13 03:50:26;;;;;;;8.55;2.75;;;;;;;16.15;66.63;100939.09;4968264;28;20055;-58
2022/06/13 03:53:07;;;;;;;11.52;3.15;;;;;;;16.14;66.75;100950.69;4973527;28;20078;-54
2022/06/13 03:55:46;;;;;;;7.28;2.47;;;;;;;16.10;66.83;100944.75;4969339;28;21114;-52
2022/06/13 03:58:24;;;;;;;9.85;2.75;;;;;;;16.06;66.59;100959.22;4974484;28;20042;-58
2022/06/13 04:00:56;;;;;;;13.73;3.25;;;;;;;16.08;66.63;100959.13;4968410;28;20078;-58
2022/06/13 04:03:24;;;;;;;9.95;3.15;;;;;;;16.09;66.64;100958.16;4966375;28;20046;-59
2022/06/13 04:06:01;;;;;;;8.65;2.47;;;;;;;16.08;66.29;100959.97;4962070;28;20058;-58
2022/06/13 04:08:31;;;;;;;9.82;2.85;;;;;;;16.07;65.64;100957.41;4968670;28;20043;-58
2022/06/13 04:11:19;;;;;;;11.63;2.42;;;;;;;16.10;65.78;100954.53;4968171;28;20070;-57
2022/06/13 04:14:12;;;;;;;6.65;2.72;;;;;;;16.07;65.56;100955.59;4967483;28;20122;-59
2022/06/13 04:16:57;;;;;;;9.90;3.28;;;;;;;16.09;65.45;100956.34;4963015;28;20082;-59
2022/06/13 04:19:52;;;;;;;12.95;3.10;;;;;;;16.18;65.59;100953.00;4973825;28;20047;-57
2022/06/13 04:22:35;;;;;;;8.77;2.90;;;;;;;16.28;65.59;100953.13;4971067;28;20491;-60
2022/06/13 04:25:11;;;;;;;8.35;2.50;;;;;;;16.36;64.84;100955.19;4965781;28;20051;-61
2022/06/13 04:27:45;;;;;;;7.97;2.88;;;;;;;16.43;63.56;100940.44;4965433;28;20057;-61
2022/06/13 04:30:19;;;;;;;10.30;3.20;;;;;;;16.51;63.31;100951.31;4965531;28;20134;-59
2022/06/13 04:32:57;;;;;;;14.60;3.47;;;;;;;16.50;62.15;100952.28;4965957;28;20065;-60
2022/06/13 04:35:25;;;;;;;10.90;3.63;;;;;;;16.45;62.36;100955.31;4967514;28;20058;-58
2022/06/13 04:37:52;;;;;;;8.93;3.13;;;;;;;16.45;62.04;100954.47;4965787;28;20069;-57
2022/06/13 04:40:22;;;;;;;9.55;2.90;;;;;;;16.46;61.95;100956.16;4969418;28;20050;-60
2022/06/13 04:42:50;;;;;;;7.90;2.72;;;;;;;16.45;61.69;100954.47;4965862;28;20043;-60
2022/06/13 04:45:45;;;;;;;12.95;3.40;;;;;;;16.37;61.56;100963.03;4964058;28;20069;-57
2022/06/13 04:48:13;;;;;;;13.25;3.05;;;;;;;16.31;61.66;100970.66;4969758;28;20046;-54
2022/06/13 04:50:44;;;;;;;13.55;3.08;;;;;;;16.31;61.62;100968.00;4968763;28;20062;-57
2022/06/13 04:53:16;;;;;;;9.60;3.90;;;;;;;16.32;61.38;100969.66;4965971;28;20153;-61
2022/06/13 04:55:46;;;;;;;11.32;2.72;;;;;;;16.26;61.05;100964.84;4961989;28;20507;-57
2022/06/13 04:58:20;;;;;;;11.85;3.00;;;;;;;16.22;61.05;100964.22;4971245;28;20051;-60
2022/06/13 05:00:49;;;;;;;11.97;3.33;;;;;;;16.33;60.86;100968.69;4965282;28;20065;-60
2022/06/13 05:03:22;;;;;;;12.52;3.92;;;;;;;16.45;60.71;100967.75;4962937;28;20055;-59
2022/06/13 05:05:53;;;;;;;17.35;3.30;;;;;;;16.57;60.58;100971.25;4976616;28;20090;-60
2022/06/13 05:08:21;;;;;;;12.77;3.60;;;;;;;16.65;60.01;100975.00;4969536;28;20136;-60
2022/06/13 05:10:51;;;;;;;10.05;3.97;;;;;;;16.69;59.45;100979.09;4954718;28;20066;-58
2022/06/13 05:13:19;;;;;;;10.68;3.97;;;;;;;16.83;59.17;100971.88;4968797;28;20063;-58
2022/06/13 05:15:53;;;;;;;13.73;3.97;;;;;;;16.95;58.42;100968.25;4958791;28;20159;-60
2022/06/13 05:18:42;;;;;;;17.73;3.85;;;;;;;17.06;57.81;100970.88;4986951;28;20054;-59
2022/06/13 05:21:29;;;;;;;11.82;2.97;;;;;;;17.08;56.99;100971.63;4969451;28;20062;-59
2022/06/13 05:24:17;;;;;;;9.35;2.65;;;;;;;17.05;56.31;100984.31;4965898;28;20392;-59
2022/06/13 05:26:44;;;;;;;10.13;3.03;;;;;;;17.12;56.49;100981.03;4968206;28;20069;-58
2022/06/13 05:29:12;;;;;;;10.25;3.28;;;;;;;17.23;56.49;100988.16;4973128;28;20162;-58
2022/06/13 05:31:39;;;;;;;7.00;2.92;;;;;;;17.26;55.64;100987.91;4971645;28;20058;-59
2022/06/13 05:34:17;;;;;;;13.45;3.10;;;;;;;17.21;56.21;100987.44;4971401;28;20059;-60
2022/06/13 05:36:44;;;;;;;12.48;3.38;;;;;;;17.16;55.76;100986.97;4969185;28;20070;-59
2022/06/13 05:39:12;;;;;;;8.27;3.33;;;;;;;17.06;55.99;100997.47;4966748;28;20050;-60
2022/06/13 05:41:39;;;;;;;11.82;4.20;;;;;;;16.99;55.99;100990.13;4967686;28;20051;-61
2022/06/13 05:44:06;;;;;;;12.80;3.90;;;;;;;16.91;56.49;100988.91;4968819;28;20055;-57
2022/06/13 05:46:35;;;;;;;12.57;3.90;;;;;;;16.94;56.51;100988.69;4971273;28;20050;-60
2022/06/13 05:49:04;;;;;;;12.02;3.92;;;;;;;17.11;55.91;100987.34;4975076;28;20430;-59
2022/06/13 05:51:31;;;;;;;16.10;3.65;;;;;;;17.28;55.47;100985.09;4964526;28;20062;-60
2022/06/13 05:53:58;;;;;;;15.13;3.60;;;;;;;17.37;54.75;100995.00;4975671;28;20061;-61
2022/06/13 05:56:25;;;;;;;9.05;3.38;;;;;;;17.48;54.32;100995.00;4965945;28;20054;-59
2022/06/13 05:58:53;;;;;;;12.07;3.42;;;;;;;17.56;53.86;101000.53;4970547;28;20379;-59
2022/06/13 06:01:20;;;;;;;13.05;3.80;;;;;;;17.70;53.43;100999.38;4968581;28;20503;-60
2022/06/13 06:03:47;;;;;;;9.48;3.28;;;;;;;17.85;53.00;100999.94;4977558;28;20057;-60
2022/06/13 06:06:22;;;;;;;10.48;3.63;;;;;;;17.98;51.70;101000.63;4976921;28;20065;-59
2022/06/13 06:08:50;;;;;;;;;;;;;;;18.07;51.42;101001.66;4969726;28;20428;-61
2022/06/13 06:11:17;;;;;;;15.65;4.07;;;;;;;17.93;50.56;101009.00;4983615;28;19933;-62
2022/06/13 06:13:44;;;;;;;7.97;3.03;;;;;;;17.75;50.53;101007.88;4971306;28;20483;-62
2022/06/13 06:16:15;;;;;;;13.63;2.80;;;;;;;17.68;49.89;101004.81;4968008;28;20054;-58
2022/06/13 06:18:43;;;;;;;9.65;2.50;;;;;;;17.68;50.00;101007.47;4979936;28;20051;-59
2022/06/13 06:21:10;;;;;;;10.43;3.30;;;;;;;17.75;50.37;101005.22;4969645;28;20062;-58
2022/06/13 06:23:38;;;;;;;6.07;2.30;;;;;;;17.84;48.86;101011.59;4975817;28;20046;-60
2022/06/13 06:26:06;;;;;;;9.48;2.28;;;;;;;17.84;49.09;101007.09;4951392;28;20062;-56
2022/06/13 06:28:34;;;;;;;16.88;2.83;;;;;;;17.58;48.08;101019.88;4968979;28;20074;-56
2022/06/13 06:31:03;;;;;;;8.80;2.40;;;;;;;17.29;48.67;101013.41;4972091;28;20073;-57
2022/06/13 06:33:32;;;;;;;8.05;2.50;;;;;;;17.23;47.44;101017.41;4966812;28;20070;-59
2022/06/13 06:35:59;;;;;;;9.10;2.50;;;;;;;17.08;47.36;101008.84;4969340;28;20043;-57
2022/06/13 06:38:27;;;;;;;12.30;2.92;;;;;;;16.96;46.94;101025.78;4970724;28;20047;-59
2022/06/13 06:40:55;;;;;;;12.40;2.38;;;;;;;16.84;46.12;101029.41;4961641;28;20735;-59
2022/06/13 06:43:22;;;;;;;8.50;2.00;;;;;;;16.78;45.66;101025.44;4971424;28;20055;-58
2022/06/13 06:45:49;;;;;;;7.60;1.88;;;;;;;16.66;45.88;101021.03;4968476;28;20127;-57
2022/06/13 06:48:22;;;;;;;7.93;1.58;;;;;;;16.55;46.01;101013.91;4969759;28;20047;-56
2022/06/13 06:50:50;;;;;;;6.55;2.30;;;;;;;16.54;46.83;101024.66;4973680;28;20054;-59
2022/06/13 06:53:19;;;;;;;6.13;2.13;;;;;;;16.64;46.67;101030.94;4980400;28;20061;-58
2022/06/13 07:01:27;;;;;;;9.73;2.88;;;;;;;17.13;46.46;101009.34;4968126;28;20069;-56
2022/06/13 07:03:54;;;;;;;8.70;2.67;;;;;;;17.38;46.23;100991.38;4969865;28;20257;-58
2022/06/13 07:06:21;;;;;;;6.85;2.40;;;;;;;17.48;45.11;100986.16;4969580;28;20062;-59
2022/06/13 07:08:48;;;;;;;4.70;2.05;;;;;;;17.50;45.11;100982.38;4966126;28;20896;-58
2022/06/13 07:14:10;;;;;;;5.93;1.73;;;;;;;17.44;45.06;100991.72;4977023;28;20054;-59
2022/06/13 07:16:37;;;;;;;6.95;1.90;;;;;;;17.51;45.20;100992.06;4970045;28;20062;-55
2022/06/13 07:19:05;;;;;;;3.25;1.70;;;;;;;17.60;44.97;100991.28;4977933;28;20921;-57
2022/06/13 07:21:32;;;;;;;7.55;1.80;;;;;;;17.71;44.94;100998.41;4973090;28;20050;-59
2022/06/13 07:24:00;;;;;;;12.70;2.05;;;;;;;17.91;44.85;100991.44;4971139;28;20511;-57
2022/06/13 07:26:27;;;;;;;9.32;2.75;;;;;;;18.17;44.18;101013.22;4977714;28;20057;-56
2022/06/13 07:28:55;;;;;;;13.20;2.35;;;;;;;18.27;43.31;101008.78;4968779;28;20058;-59
2022/06/13 07:31:33;;;;;;;11.00;2.70;;;;;;;18.35;43.08;101003.66;4967319;28;20065;-57
2022/06/13 07:34:00;;;;;;;6.18;1.92;;;;;;;18.33;42.89;101002.13;4971349;28;20078;-57
2022/06/13 07:36:27;;;;;;;8.25;2.50;;;;;;;18.31;41.51;101004.06;4975538;28;20059;-56
2022/06/13 07:38:54;;;;;;;6.15;2.35;;;;;;;18.25;42.39;101012.59;4970262;28;20503;-55
2022/06/13 07:41:22;;;;;;;7.63;1.92;;;;;;;18.16;42.42;101009.72;4967700;28;20138;-58
2022/06/13 07:43:51;;;;;;;3.72;2.15;;;;;;;18.11;42.66;101011.94;4969025;28;20046;-58
2022/06/13 07:46:20;;;;;;;4.47;2.05;;;;;;;18.03;42.75;101006.41;4967150;28;20046;-58
2022/06/13 07:48:49;;;;;;;6.00;1.98;;;;;;;17.77;41.86;101008.56;4967257;28;20053;-56
2022/06/13 07:51:16;;;;;;;5.47;1.88;;;;;;;17.48;42.34;101010.13;4970314;28;20066;-56
2022/06/13 07:53:43;;;;;;;5.00;1.88;;;;;;;17.37;42.75;101005.66;4962742;28;20055;-55
2022/06/13 07:56:28;;;;;;;8.52;2.15;;;;;;;17.42;43.36;101011.44;4960989;28;20050;-57
2022/06/13 07:58:56;;;;;;;5.28;1.60;;;;;;;17.45;43.80;101004.06;4963516;28;20126;-57
2022/06/13 08:01:24;;;;;;;8.90;2.42;;;;;;;17.60;43.48;101011.75;4978942;28;20097;-56
2022/06/13 08:03:52;;;;;;;5.85;1.85;;;;;;;17.68;43.62;101004.81;4970714;28;20054;-57
2022/06/13 08:06:21;;;;;;;8.45;2.05;;;;;;;17.83;43.63;101007.22;4968700;28;20054;-58
2022/06/13 08:08:49;;;;;;;4.88;1.70;;;;;;;17.96;43.41;101010.53;4968210;28;20603;-55
2022/06/13 08:11:20;;;;;;;11.20;2.30;;;;;;;18.10;43.48;101015.56;4971075;28;20062;-57
2022/06/13 08:13:47;;;;;;;6.25;1.48;;;;;;;18.19;42.23;101014.81;4967840;28;20482;-56
2022/06/13 08:16:14;;;;;;;6.82;1.60;;;;;;;18.03;42.54;101014.41;4969899;28;20141;-58
2022/06/13 08:18:42;;;;;;;3.03;1.45;;;;;;;18.02;42.62;101017.19;4967432;28;20508;-56
2022/06/13 08:21:11;;;;;;;9.23;2.35;;;;;;;18.08;42.64;101022.00;4970658;28;20058;-56
2022/06/13 08:23:38;;;;;;;9.30;1.98;;;;;;;18.13;43.17;101012.63;4972159;28;20055;-56
2022/06/13 08:26:05;;;;;;;7.90;1.70;;;;;;;18.32;43.82;101025.22;4970529;28;20153;-59
2022/06/13 08:28:32;;;;;;;6.53;2.13;;;;;;;18.46;43.59;101021.38;4974150;28;20047;-59
2022/06/13 08:31:03;;;;;;;6.57;1.70;;;;;;;18.61;42.85;101025.41;4972578;28;20062;-57
2022/06/13 08:33:30;;;;;;;7.38;1.80;;;;;;;18.49;42.44;101015.81;4966790;28;20527;-57
2022/06/13 08:35:58;;;;;;;12.52;1.98;;;;;;;18.50;42.48;101019.31;4966311;28;20073;-53
2022/06/13 08:38:25;;;;;;;10.20;2.83;;;;;;;18.61;42.02;101020.09;4968843;28;20646;-55
2022/06/13 08:41:05;;;;;;;7.70;1.63;;;;;;;18.62;42.09;101021.78;4966468;28;20070;-58
2022/06/13 08:44:05;;;;;;;11.18;2.42;;;;;;;18.64;42.25;101016.28;4971179;28;20060;-58
2022/06/13 08:46:51;;;;;;;8.80;2.40;;;;;;;18.66;41.13;101017.88;4964067;28;20069;-58
2022/06/13 08:49:21;;;;;;;8.98;1.83;;;;;;;18.69;40.40;101014.97;4959201;28;20043;-55
2022/06/13 08:52:19;;;;;;;7.57;2.22;;;;;;;18.75;40.34;101012.75;4963734;28;20054;-57
2022/06/13 08:54:52;;;;;;;8.43;2.10;;;;;;;18.70;40.61;101022.00;4968378;28;20436;-58
2022/06/13 08:57:23;;;;;;;8.02;2.10;;;;;;;18.48;41.00;101035.44;4971910;28;20078;-58
2022/06/13 08:59:55;;;;;;;11.68;2.30;;;;;;;18.51;41.57;101027.19;4971081;28;20062;-57
2022/06/13 09:02:29;;;;;;;14.07;2.60;;;;;;;18.68;41.66;101031.91;4973668;28;20050;-57
2022/06/13 09:05:08;;;;;;;7.88;2.20;;;;;;;18.84;41.17;101035.94;4974300;28;20051;-59
2022/06/13 09:07:45;;;;;;;8.35;2.22;;;;;;;18.63;40.64;101038.63;4981884;28;20065;-61
2022/06/13 09:10:37;;;;;;;11.07;3.20;;;;;;;18.58;41.20;101038.16;4967498;28;20047;-61
2022/06/13 09:13:12;;;;;;;8.95;2.30;;;;;;;18.46;40.75;101040.06;4978446;28;20051;-52
2022/06/13 09:15:45;;;;;;;12.10;2.45;;;;;;;18.40;41.06;101037.91;4979680;28;20046;-54
2022/06/13 09:18:19;;;;;;;12.40;2.63;;;;;;;18.45;41.71;101035.69;4965845;28;20061;-55
2022/06/13 09:21:11;;;;;;;11.57;2.92;;;;;;;18.62;41.78;101037.78;4964938;28;20071;-61
2022/06/13 09:23:54;;;;;;;15.68;2.88;;;;;;;19.00;41.80;101025.59;4972583;28;20058;-61
2022/06/13 09:26:26;;;;;;;9.85;2.63;;;;;;;19.41;41.63;101021.94;4971097;28;20043;-61
2022/06/13 09:29:12;;;;;;;6.55;2.45;;;;;;;19.61;41.00;101024.66;4969491;28;20077;-63
2022/06/13 09:31:44;;;;;;;7.72;2.38;;;;;;;19.39;41.15;101047.09;4971387;28;20130;-56
2022/06/13 09:34:15;;;;;;;8.75;2.35;;;;;;;18.87;41.84;101025.03;4976469;28;20059;-59
2022/06/13 09:37:00;;;;;;;10.05;3.08;;;;;;;18.91;41.73;101021.94;4980167;28;20050;-62
2022/06/13 09:39:27;;;;;;;9.45;2.90;;;;;;;18.89;41.04;101044.38;4971115;28;20042;-62
2022/06/13 09:42:01;;;;;;;14.68;2.83;;;;;;;18.85;39.93;101019.78;4969305;28;20514;-55
2022/06/13 09:44:56;;;;;;;8.98;2.33;;;;;;;18.68;40.22;101029.22;4966140;28;20060;-58
2022/06/13 09:47:38;;;;;;;6.30;2.05;;;;;;;18.58;40.21;101030.16;4971150;28;20051;-56
2022/06/13 09:50:18;;;;;;;7.30;2.78;;;;;;;18.45;39.14;101031.22;4970816;28;20055;-59
2022/06/13 09:52:57;;;;;;;5.88;2.03;;;;;;;18.27;39.81;101021.28;4970875;28;20821;-58
2022/06/13 09:55:42;;;;;;;7.82;2.35;;;;;;;18.41;39.62;101029.78;4961021;28;20069;-56
2022/06/13 09:58:09;;;;;;;10.57;2.78;;;;;;;18.67;39.79;101021.38;4971685;28;20101;-56
2022/06/13 10:00:57;;;;;;;17.52;3.33;;;;;;;19.02;39.05;101009.47;4965153;28;20043;-58
2022/06/13 10:03:51;;;;;;;11.27;2.85;;;;;;;19.10;39.06;101004.31;4970846;28;20519;-55
2022/06/13 10:06:41;;;;;;;16.25;3.42;;;;;;;19.29;38.70;101003.50;4965713;28;20173;-56
2022/06/13 10:09:21;;;;;;;10.25;2.58;;;;;;;19.61;38.93;101009.47;4973921;28;20058;-59
2022/06/13 10:12:02;;;;;;;8.98;1.98;;;;;;;19.27;38.78;101008.97;4964683;28;20051;-56
2022/06/13 10:14:45;;;;;;;10.95;2.40;;;;;;;19.36;38.47;101000.16;4963177;28;20047;-53
2022/06/13 10:17:46;;;;;;;8.30;2.53;;;;;;;19.08;39.04;101004.44;4979826;28;20121;-56
2022/06/13 10:20:38;;;;;;;11.88;2.78;;;;;;;19.02;40.10;100996.97;4968854;28;20051;-56
2022/06/13 10:23:34;;;;;;;7.85;2.20;;;;;;;19.26;40.01;100985.94;4968928;28;20055;-58
2022/06/13 10:26:05;;;;;;;10.07;2.50;;;;;;;19.59;39.48;100989.22;4967656;28;20055;-57
2022/06/13 10:28:32;;;;;;;14.10;2.40;;;;;;;19.86;38.88;100997.41;5015650;23;20045;-82
2022/06/13 10:31:24;;;;;;;10.60;2.30;;;;;;;20.13;38.05;100999.34;5044263;28;20042;-83
2022/06/13 10:34:08;;;;;;;11.90;2.75;;;;;;;20.06;38.58;100992.03;5017279;28;20077;-80
2022/06/13 10:37:05;;;;;;;6.40;2.17;;;;;;;20.33;37.73;100983.25;5025630;28;20065;-81
2022/06/13 10:39:32;;;;;;;7.88;1.90;;;;;;;20.55;36.93;100984.78;4991755;28;20106;-79
2022/06/13 10:42:09;;;;;;;6.57;2.17;;;;;;;20.93;36.64;100975.72;4988961;28;20332;-80
2022/06/13 10:44:37;;;;;;;8.70;2.75;;;;;;;21.24;35.10;100977.09;4982675;28;20056;-80
2022/06/13 10:47:23;;;;;;;8.18;2.38;;;;;;;21.65;34.86;100976.69;4972275;28;20157;-79
2022/06/13 10:49:54;;;;;;;;;;;;;;;21.72;35.03;100978.59;5022130;28;20042;-77
2022/06/13 10:52:24;;;;;;;14.90;2.70;;;;;;;21.99;34.95;100979.50;4987325;28;19948;-83
2022/06/13 10:54:56;;;;;;;11.07;2.88;;;;;;;22.29;34.72;100986.28;4982812;28;20042;-83
2022/06/13 10:57:31;;;;;;;10.32;2.95;;;;;;;21.95;33.63;100976.28;4974590;28;20053;-83
2022/06/13 11:00:07;;;;;;;18.25;2.20;;;;;;;21.72;34.21;100967.88;4981371;28;20126;-82
2022/06/13 11:02:34;;;;;;;6.80;2.22;;;;;;;21.81;33.37;100976.84;5019998;28;20134;-83
2022/06/13 11:05:14;;;;;;;11.13;2.58;;;;;;;22.02;33.02;100987.22;5009260;28;20100;-82
2022/06/13 11:07:48;;;;;;;5.82;1.80;;;;;;;22.30;32.59;100977.22;4979707;28;20085;-81
2022/06/13 11:10:21;;;;;;;9.98;2.35;;;;;;;22.54;31.94;100975.69;5002398;28;20040;-80
2022/06/13 11:12:50;;;;;;;10.52;2.28;;;;;;;22.28;31.97;100981.06;4983550;28;20034;-80
2022/06/13 11:24:34;;;;;;;4.70;1.95;;;;;;;22.64;32.83;100973.72;5007089;28;20065;-78
2022/06/13 11:30:29;;;;;;;8.05;2.08;;;;;;;22.63;30.83;100980.09;5012429;28;20049;-78
2022/06/13 11:33:37;;;;;;;8.57;1.83;;;;;;;22.47;31.35;100976.34;5012507;28;20479;-79
2022/06/13 11:36:16;;;;;;;7.82;2.35;;;;;;;22.81;30.51;100963.91;4900423;29;20266;-78
2022/06/13 11:39:00;;;;;;;9.27;2.38;;;;;;;23.07;29.87;100975.44;4914066;29;20047;-78
2022/06/13 11:41:32;;;;;;;6.30;1.40;;;;;;;22.96;28.78;100981.09;4963301;28;20045;-79
2022/06/13 11:44:25;;;;;;;4.70;1.65;;;;;;;22.62;29.06;100973.88;5013997;28;20067;-85
2022/06/13 11:46:53;;;;;;;9.43;1.85;;;;;;;22.72;29.17;100984.50;5014698;28;20109;-80
2022/06/13 11:49:45;;;;;;;5.70;1.65;;;;;;;23.05;29.55;100964.00;5018159;28;20042;-81
2022/06/13 11:55:24;;;;;;;9.02;2.58;;;;;;;22.15;31.39;100971.56;5000598;28;20049;-81
2022/06/13 11:57:57;;;;;;;10.85;2.35;;;;;;;21.69;32.25;100978.06;4988104;28;20040;-80
2022/06/13 12:00:51;;;;;;;5.93;1.80;;;;;;;21.64;32.37;100986.56;5007845;28;20057;-78
2022/06/13 12:03:20;;;;;;;21.08;2.50;;;;;;;21.62;32.71;100985.03;5005584;28;20064;-80
2022/06/13 12:05:57;;;;;;;11.00;2.00;;;;;;;21.76;32.66;100979.13;4997718;28;20050;-78
2022/06/13 12:08:29;;;;;;;9.82;2.30;;;;;;;21.83;32.28;100974.00;5011121;28;20117;-80
2022/06/13 12:11:00;;;;;;;7.78;1.90;;;;;;;21.77;32.73;100988.84;4978345;28;20057;-80
2022/06/13 12:13:33;;;;;;;4.53;1.58;;;;;;;21.17;31.93;100984.06;5014059;28;20049;-81
2022/06/13 12:16:20;;;;;;;6.03;1.90;;;;;;;20.94;32.33;100996.16;4980814;28;20054;-80
2022/06/13 12:19:27;;;;;;;15.57;2.67;;;;;;;20.42;35.60;101015.31;4980406;28;20114;-83
2022/06/13 12:22:07;;;;;;;25.05;3.47;;;;;;;20.05;37.55;101017.91;4982947;28;20184;-82
2022/06/13 12:24:48;;;;;;;22.35;2.60;;;;;;;19.87;38.66;101030.31;5012276;28;20057;-82
2022/06/13 12:27:43;;;;;;;9.13;2.40;;;;;;;19.64;39.45;101041.25;4994217;28;20058;-84
2022/06/13 12:30:29;;;;;;;8.98;2.15;;;;;;;19.30;40.34;101024.72;5008407;28;20116;-83